sensor_id;sensor_type;location;lat;lon;timestamp;pressure;altitude;pressure_sealevel;temperature
63588;BMP280;49966;46.896;18.004;2023-08-08T00:02:05;100553.75;;;16.03
63588;BMP280;49966;46.896;18.004;2023-08-08T00:04:33;100546.13;;;16.09
63588;BMP280;49966;46.896;18.004;2023-08-08T00:07:02;100565.59;;;16.06
63588;BMP280;49966;46.896;18.004;2023-08-08T00:09:30;100561.78;;;16.10
63588;BMP280;49966;46.896;18.004;2023-08-08T00:11:59;100580.19;;;16.19
63588;BMP280;49966;46.896;18.004;2023-08-08T00:14:28;100564.91;;;16.26
63588;BMP280;49966;46.896;18.004;2023-08-08T00:17:11;100572.56;;;16.21
63588;BMP280;49966;46.896;18.004;2023-08-08T00:19:39;100574.06;;;16.22
63588;BMP280;49966;46.896;18.004;2023-08-08T00:22:07;100569.13;;;16.27
63588;BMP280;49966;46.896;18.004;2023-08-08T00:24:36;100566.44;;;16.24
63588;BMP280;49966;46.896;18.004;2023-08-08T00:27:04;100559.19;;;16.21
63588;BMP280;49966;46.896;18.004;2023-08-08T00:29:34;100586.69;;;16.21
63588;BMP280;49966;46.896;18.004;2023-08-08T00:32:03;100551.91;;;16.18
63588;BMP280;49966;46.896;18.004;2023-08-08T00:34:32;100561.09;;;16.20
63588;BMP280;49966;46.896;18.004;2023-08-08T00:37:00;100556.84;;;16.16
63588;BMP280;49966;46.896;18.004;2023-08-08T00:39:28;100561.03;;;16.17
63588;BMP280;49966;46.896;18.004;2023-08-08T00:41:57;100560.69;;;16.18
63588;BMP280;49966;46.896;18.004;2023-08-08T00:44:26;100554.53;;;16.14
63588;BMP280;49966;46.896;18.004;2023-08-08T00:46:55;100559.88;;;16.11
63588;BMP280;49966;46.896;18.004;2023-08-08T00:49:23;100562.53;;;16.03
63588;BMP280;49966;46.896;18.004;2023-08-08T00:51:52;100580.84;;;16.01
63588;BMP280;49966;46.896;18.004;2023-08-08T00:54:21;100568.22;;;16.02
63588;BMP280;49966;46.896;18.004;2023-08-08T00:56:50;100552.22;;;16.09
63588;BMP280;49966;46.896;18.004;2023-08-08T00:59:19;100562.16;;;16.05
63588;BMP280;49966;46.896;18.004;2023-08-08T01:01:57;100572.09;;;16.12
63588;BMP280;49966;46.896;18.004;2023-08-08T01:04:30;100561.03;;;16.10
63588;BMP280;49966;46.896;18.004;2023-08-08T01:07:06;100561.78;;;16.10
63588;BMP280;49966;46.896;18.004;2023-08-08T01:09:39;100549.94;;;16.11
63588;BMP280;49966;46.896;18.004;2023-08-08T01:12:17;100550.34;;;16.13
63588;BMP280;49966;46.896;18.004;2023-08-08T01:14:54;100556.88;;;16.19
63588;BMP280;49966;46.896;18.004;2023-08-08T01:17:27;100551.53;;;16.23
63588;BMP280;49966;46.896;18.004;2023-08-08T01:20:02;100572.56;;;16.21
63588;BMP280;49966;46.896;18.004;2023-08-08T01:22:47;100561.44;;;16.19
63588;BMP280;49966;46.896;18.004;2023-08-08T01:25:25;100566.03;;;16.18
63588;BMP280;49966;46.896;18.004;2023-08-08T01:27:58;100561.84;;;16.24
63588;BMP280;49966;46.896;18.004;2023-08-08T01:30:30;100553.47;;;16.29
63588;BMP280;49966;46.896;18.004;2023-08-08T01:32:58;100560.75;;;16.25
63588;BMP280;49966;46.896;18.004;2023-08-08T01:35:30;100558.47;;;16.31
63588;BMP280;49966;46.896;18.004;2023-08-08T01:38:04;100556.53;;;16.35
63588;BMP280;49966;46.896;18.004;2023-08-08T01:40:38;100549.66;;;16.38
63588;BMP280;49966;46.896;18.004;2023-08-08T01:43:17;100559.25;;;16.39
63588;BMP280;49966;46.896;18.004;2023-08-08T01:45:50;100559.59;;;16.37
63588;BMP280;49966;46.896;18.004;2023-08-08T01:48:19;100555.44;;;16.43
63588;BMP280;49966;46.896;18.004;2023-08-08T01:50:48;100555.84;;;16.52
63588;BMP280;49966;46.896;18.004;2023-08-08T01:53:16;100566.94;;;16.51
63588;BMP280;49966;46.896;18.004;2023-08-08T01:55:46;100559.25;;;16.53
63588;BMP280;49966;46.896;18.004;2023-08-08T01:58:16;100556.59;;;16.46
63588;BMP280;49966;46.896;18.004;2023-08-08T02:03:33;100561.91;;;16.39
63588;BMP280;49966;46.896;18.004;2023-08-08T02:06:02;100558.84;;;16.33
63588;BMP280;49966;46.896;18.004;2023-08-08T02:08:30;100556.53;;;16.35
63588;BMP280;49966;46.896;18.004;2023-08-08T02:11:00;100564.59;;;16.39
63588;BMP280;49966;46.896;18.004;2023-08-08T02:13:28;100563.44;;;16.40
63588;BMP280;49966;46.896;18.004;2023-08-08T02:15:57;100555.00;;;16.38
63588;BMP280;49966;46.896;18.004;2023-08-08T02:18:25;100570.72;;;16.36
63588;BMP280;49966;46.896;18.004;2023-08-08T02:20:56;100562.28;;;16.37
63588;BMP280;49966;46.896;18.004;2023-08-08T02:23:24;100566.88;;;16.40
63588;BMP280;49966;46.896;18.004;2023-08-08T02:25:53;100568.44;;;16.41
63588;BMP280;49966;46.896;18.004;2023-08-08T02:28:23;100586.03;;;16.42
63588;BMP280;49966;46.896;18.004;2023-08-08T02:30:52;100583.34;;;16.42
63588;BMP280;49966;46.896;18.004;2023-08-08T02:33:21;100582.19;;;16.40
63588;BMP280;49966;46.896;18.004;2023-08-08T02:35:49;100581.47;;;16.46
63588;BMP280;49966;46.896;18.004;2023-08-08T02:38:17;100570.34;;;16.44
63588;BMP280;49966;46.896;18.004;2023-08-08T02:40:45;100595.22;;;16.48
63588;BMP280;49966;46.896;18.004;2023-08-08T02:43:14;100581.09;;;16.51
63588;BMP280;49966;46.896;18.004;2023-08-08T02:45:45;100581.03;;;16.48
63588;BMP280;49966;46.896;18.004;2023-08-08T02:48:13;100586.03;;;16.46
63588;BMP280;49966;46.896;18.004;2023-08-08T02:50:41;100594.38;;;16.37
63588;BMP280;49966;46.896;18.004;2023-08-08T02:53:09;100584.03;;;16.32
63588;BMP280;49966;46.896;18.004;2023-08-08T02:55:38;100580.25;;;16.33
63588;BMP280;49966;46.896;18.004;2023-08-08T02:58:06;100588.28;;;16.33
63588;BMP280;49966;46.896;18.004;2023-08-08T03:00:34;100589.03;;;16.37
63588;BMP280;49966;46.896;18.004;2023-08-08T03:03:04;100598.59;;;16.31
63588;BMP280;49966;46.896;18.004;2023-08-08T03:05:33;100600.91;;;16.36
63588;BMP280;49966;46.896;18.004;2023-08-08T03:08:01;100592.06;;;16.32
63588;BMP280;49966;46.896;18.004;2023-08-08T03:10:29;100601.22;;;16.27
63588;BMP280;49966;46.896;18.004;2023-08-08T03:12:58;100602.00;;;16.24
63588;BMP280;49966;46.896;18.004;2023-08-08T03:15:26;100617.63;;;16.22
63588;BMP280;49966;46.896;18.004;2023-08-08T03:17:54;100623.78;;;16.26
63588;BMP280;49966;46.896;18.004;2023-08-08T03:20:24;100618.06;;;16.21
63588;BMP280;49966;46.896;18.004;2023-08-08T03:22:53;100617.22;;;16.17
63588;BMP280;49966;46.896;18.004;2023-08-08T03:25:21;100617.19;;;16.10
63588;BMP280;49966;46.896;18.004;2023-08-08T03:27:49;100611.13;;;16.16
63588;BMP280;49966;46.896;18.004;2023-08-08T03:30:17;100616.06;;;16.11
63588;BMP280;49966;46.896;18.004;2023-08-08T03:32:46;100621.00;;;16.05
63588;BMP280;49966;46.896;18.004;2023-08-08T03:35:14;100606.47;;;16.06
63588;BMP280;49966;46.896;18.004;2023-08-08T03:37:44;100605.69;;;15.98
63588;BMP280;49966;46.896;18.004;2023-08-08T03:40:12;100618.28;;;15.98
63588;BMP280;49966;46.896;18.004;2023-08-08T03:42:41;100618.22;;;15.94
63588;BMP280;49966;46.896;18.004;2023-08-08T03:45:10;100612.88;;;15.94
63588;BMP280;49966;46.896;18.004;2023-08-08T03:47:39;100620.19;;;15.97
63588;BMP280;49966;46.896;18.004;2023-08-08T03:50:08;100624.78;;;16.00
63588;BMP280;49966;46.896;18.004;2023-08-08T03:52:37;100621.34;;;16.00
63588;BMP280;49966;46.896;18.004;2023-08-08T03:55:07;100619.81;;;15.99
63588;BMP280;49966;46.896;18.004;2023-08-08T03:57:35;100633.22;;;16.06
63588;BMP280;49966;46.896;18.004;2023-08-08T04:00:05;100616.41;;;16.06
63588;BMP280;49966;46.896;18.004;2023-08-08T04:02:35;100627.13;;;16.09
63588;BMP280;49966;46.896;18.004;2023-08-08T04:05:04;100642.84;;;16.14
63588;BMP280;49966;46.896;18.004;2023-08-08T04:07:33;100646.28;;;16.15
63588;BMP280;49966;46.896;18.004;2023-08-08T04:10:02;100650.16;;;16.21
63588;BMP280;49966;46.896;18.004;2023-08-08T04:12:32;100658.19;;;16.24
63588;BMP280;49966;46.896;18.004;2023-08-08T04:15:25;100647.88;;;16.26
63588;BMP280;49966;46.896;18.004;2023-08-08T04:17:54;100645.59;;;16.32
63588;BMP280;49966;46.896;18.004;2023-08-08T04:20:22;100646.41;;;16.40
63588;BMP280;49966;46.896;18.004;2023-08-08T04:22:50;100654.44;;;16.40
63588;BMP280;49966;46.896;18.004;2023-08-08T04:25:19;100653.31;;;16.41
63588;BMP280;49966;46.896;18.004;2023-08-08T04:27:49;100647.53;;;16.32
63588;BMP280;49966;46.896;18.004;2023-08-08T04:30:17;100662.47;;;16.36
63588;BMP280;49966;46.896;18.004;2023-08-08T04:32:46;100667.41;;;16.38
63588;BMP280;49966;46.896;18.004;2023-08-08T04:35:17;100671.28;;;16.40
63588;BMP280;49966;46.896;18.004;2023-08-08T04:37:45;100682.41;;;16.46
63588;BMP280;49966;46.896;18.004;2023-08-08T04:40:13;100678.59;;;16.47
63588;BMP280;49966;46.896;18.004;2023-08-08T04:42:42;100674.38;;;16.46
63588;BMP280;49966;46.896;18.004;2023-08-08T04:45:12;100677.41;;;16.41
63588;BMP280;49966;46.896;18.004;2023-08-08T04:47:41;100690.78;;;16.44
63588;BMP280;49966;46.896;18.004;2023-08-08T04:50:09;100669.34;;;16.37
63588;BMP280;49966;46.896;18.004;2023-08-08T04:52:37;100668.56;;;16.33
63588;BMP280;49966;46.896;18.004;2023-08-08T04:55:06;100683.47;;;16.38
63588;BMP280;49966;46.896;18.004;2023-08-08T04:57:35;100678.91;;;16.38
63588;BMP280;49966;46.896;18.004;2023-08-08T05:00:04;100669.75;;;16.36
63588;BMP280;49966;46.896;18.004;2023-08-08T05:02:36;100690.75;;;16.34
63588;BMP280;49966;46.896;18.004;2023-08-08T05:05:07;100677.38;;;16.34
63588;BMP280;49966;46.896;18.004;2023-08-08T05:07:36;100683.84;;;16.33
63588;BMP280;49966;46.896;18.004;2023-08-08T05:10:05;100692.66;;;16.33
63588;BMP280;49966;46.896;18.004;2023-08-08T05:12:34;100696.50;;;16.36
63588;BMP280;49966;46.896;18.004;2023-08-08T05:15:02;100686.22;;;16.45
63588;BMP280;49966;46.896;18.004;2023-08-08T05:17:31;100677.06;;;16.46
63588;BMP280;49966;46.896;18.004;2023-08-08T05:20:01;100687.06;;;16.56
63588;BMP280;49966;46.896;18.004;2023-08-08T05:22:30;100706.59;;;16.64
63588;BMP280;49966;46.896;18.004;2023-08-08T05:24:58;100703.94;;;16.74
63588;BMP280;49966;46.896;18.004;2023-08-08T05:27:39;100696.72;;;16.82
63588;BMP280;49966;46.896;18.004;2023-08-08T05:30:08;100697.19;;;17.02
63588;BMP280;49966;46.896;18.004;2023-08-08T05:32:37;100704.13;;;17.17
63588;BMP280;49966;46.896;18.004;2023-08-08T05:35:07;100706.81;;;17.31
63588;BMP280;49966;46.896;18.004;2023-08-08T05:37:36;100703.41;;;17.49
63588;BMP280;49966;46.896;18.004;2023-08-08T05:40:05;100708.75;;;17.56
63588;BMP280;49966;46.896;18.004;2023-08-08T05:42:33;100708.03;;;17.70
63588;BMP280;49966;46.896;18.004;2023-08-08T05:45:02;100702.28;;;17.68
63588;BMP280;49966;46.896;18.004;2023-08-08T05:47:31;100717.22;;;17.76
63588;BMP280;49966;46.896;18.004;2023-08-08T05:50:00;100703.44;;;17.74
63588;BMP280;49966;46.896;18.004;2023-08-08T05:52:30;100721.06;;;17.89
63588;BMP280;49966;46.896;18.004;2023-08-08T05:54:59;100756.06;;;19.02
63588;BMP280;49966;46.896;18.004;2023-08-08T05:57:27;100765.22;;;21.38
63588;BMP280;49966;46.896;18.004;2023-08-08T05:59:56;100784.56;;;23.80
63588;BMP280;49966;46.896;18.004;2023-08-08T06:02:30;100755.59;;;25.77
63588;BMP280;49966;46.896;18.004;2023-08-08T06:05:01;100783.38;;;27.05
63588;BMP280;49966;46.896;18.004;2023-08-08T06:07:31;100778.97;;;27.72
63588;BMP280;49966;46.896;18.004;2023-08-08T06:10:02;100789.44;;;28.58
63588;BMP280;49966;46.896;18.004;2023-08-08T06:12:33;100793.06;;;28.64
63588;BMP280;49966;46.896;18.004;2023-08-08T06:15:02;100781.34;;;28.06
63588;BMP280;49966;46.896;18.004;2023-08-08T06:17:31;100771.09;;;27.74
63588;BMP280;49966;46.896;18.004;2023-08-08T06:20:10;100785.78;;;27.85
63588;BMP280;49966;46.896;18.004;2023-08-08T06:22:44;100795.91;;;28.45
63588;BMP280;49966;46.896;18.004;2023-08-08T06:25:15;100794.91;;;30.03
63588;BMP280;49966;46.896;18.004;2023-08-08T06:27:47;100829.56;;;30.82
63588;BMP280;49966;46.896;18.004;2023-08-08T06:30:17;100813.88;;;30.62
63588;BMP280;49966;46.896;18.004;2023-08-08T06:32:45;100813.63;;;30.25
63588;BMP280;49966;46.896;18.004;2023-08-08T06:35:15;100830.59;;;30.64
63588;BMP280;49966;46.896;18.004;2023-08-08T06:37:46;100830.56;;;29.79
63588;BMP280;49966;46.896;18.004;2023-08-08T06:40:16;100821.19;;;29.03
63588;BMP280;49966;46.896;18.004;2023-08-08T06:42:45;100823.88;;;29.80
63588;BMP280;49966;46.896;18.004;2023-08-08T06:45:18;100812.88;;;29.21
63588;BMP280;49966;46.896;18.004;2023-08-08T06:47:47;100808.63;;;27.88
63588;BMP280;49966;46.896;18.004;2023-08-08T06:50:17;100807.47;;;27.52
63588;BMP280;49966;46.896;18.004;2023-08-08T06:52:48;100812.94;;;26.66
63588;BMP280;49966;46.896;18.004;2023-08-08T06:55:17;100804.16;;;25.88
63588;BMP280;49966;46.896;18.004;2023-08-08T06:57:46;100797.75;;;25.25
63588;BMP280;49966;46.896;18.004;2023-08-08T07:00:14;100803.22;;;24.61
63588;BMP280;49966;46.896;18.004;2023-08-08T07:02:46;100798.22;;;24.05
63588;BMP280;49966;46.896;18.004;2023-08-08T07:05:15;100799.59;;;24.10
63588;BMP280;49966;46.896;18.004;2023-08-08T07:07:43;100795.38;;;23.35
63588;BMP280;49966;46.896;18.004;2023-08-08T07:10:14;100795.50;;;23.44
63588;BMP280;49966;46.896;18.004;2023-08-08T07:12:42;100783.41;;;23.16
63588;BMP280;49966;46.896;18.004;2023-08-08T07:15:12;100783.00;;;23.17
63588;BMP280;49966;46.896;18.004;2023-08-08T07:17:40;100780.13;;;23.08
63588;BMP280;49966;46.896;18.004;2023-08-08T07:20:09;100794.63;;;22.98
63588;BMP280;49966;46.896;18.004;2023-08-08T07:22:40;100795.66;;;22.68
63588;BMP280;49966;46.896;18.004;2023-08-08T07:25:09;100774.13;;;22.05
63588;BMP280;49966;46.896;18.004;2023-08-08T07:27:39;100772.75;;;22.16
63588;BMP280;49966;46.896;18.004;2023-08-08T07:30:08;100778.91;;;22.37
63588;BMP280;49966;46.896;18.004;2023-08-08T07:32:39;100774.47;;;22.66
63588;BMP280;49966;46.896;18.004;2023-08-08T07:35:08;100783.59;;;22.53
63588;BMP280;49966;46.896;18.004;2023-08-08T07:37:37;100777.03;;;22.74
63588;BMP280;49966;46.896;18.004;2023-08-08T07:40:31;100780.13;;;22.72
63588;BMP280;49966;46.896;18.004;2023-08-08T07:43:04;100780.09;;;22.56
63588;BMP280;49966;46.896;18.004;2023-08-08T07:45:32;100767.06;;;22.51
63588;BMP280;49966;46.896;18.004;2023-08-08T07:48:01;100783.50;;;22.60
63588;BMP280;49966;46.896;18.004;2023-08-08T07:50:29;100767.38;;;22.36
63588;BMP280;49966;46.896;18.004;2023-08-08T07:52:57;100768.59;;;22.12
63588;BMP280;49966;46.896;18.004;2023-08-08T07:55:28;100781.19;;;21.99
63588;BMP280;49966;46.896;18.004;2023-08-08T07:58:00;100786.91;;;21.81
63588;BMP280;49966;46.896;18.004;2023-08-08T08:00:35;100781.19;;;21.99
63588;BMP280;49966;46.896;18.004;2023-08-08T08:03:05;100785.22;;;22.10
63588;BMP280;49966;46.896;18.004;2023-08-08T08:05:33;100795.56;;;22.15
63588;BMP280;49966;46.896;18.004;2023-08-08T08:08:03;100784.28;;;22.21
63588;BMP280;49966;46.896;18.004;2023-08-08T08:10:32;100796.63;;;22.78
63588;BMP280;49966;46.896;18.004;2023-08-08T08:13:00;100788.22;;;23.08
63588;BMP280;49966;46.896;18.004;2023-08-08T08:15:28;100785.25;;;23.03
63588;BMP280;49966;46.896;18.004;2023-08-08T08:18:03;100774.88;;;22.45
63588;BMP280;49966;46.896;18.004;2023-08-08T08:20:32;100786.19;;;22.60
63588;BMP280;49966;46.896;18.004;2023-08-08T08:23:04;100762.06;;;22.29
63588;BMP280;49966;46.896;18.004;2023-08-08T08:25:33;100774.72;;;22.36
63588;BMP280;49966;46.896;18.004;2023-08-08T08:28:01;100770.53;;;22.51
63588;BMP280;49966;46.896;18.004;2023-08-08T08:30:29;100776.72;;;22.68
63588;BMP280;49966;46.896;18.004;2023-08-08T08:32:58;100761.47;;;22.78
63588;BMP280;49966;46.896;18.004;2023-08-08T08:35:30;100780.44;;;23.10
63588;BMP280;49966;46.896;18.004;2023-08-08T08:38:01;100768.09;;;22.37
63588;BMP280;49966;46.896;18.004;2023-08-08T08:40:30;100759.47;;;22.26
63588;BMP280;49966;46.896;18.004;2023-08-08T08:43:01;100765.91;;;22.32
63588;BMP280;49966;46.896;18.004;2023-08-08T08:45:37;100779.19;;;22.42
63588;BMP280;49966;46.896;18.004;2023-08-08T08:48:09;100772.38;;;22.14
63588;BMP280;49966;46.896;18.004;2023-08-08T08:50:40;100766.09;;;22.21
63588;BMP280;49966;46.896;18.004;2023-08-08T08:53:10;100775.88;;;22.35
63588;BMP280;49966;46.896;18.004;2023-08-08T08:55:39;100766.59;;;22.72
63588;BMP280;49966;46.896;18.004;2023-08-08T08:58:08;100767.53;;;23.02
63588;BMP280;49966;46.896;18.004;2023-08-08T09:00:46;100760.16;;;23.18
63588;BMP280;49966;46.896;18.004;2023-08-08T09:03:16;100767.94;;;23.33
63588;BMP280;49966;46.896;18.004;2023-08-08T09:05:46;100774.38;;;23.22
63588;BMP280;49966;46.896;18.004;2023-08-08T09:08:15;100767.09;;;23.52
63588;BMP280;49966;46.896;18.004;2023-08-08T09:10:52;100775.34;;;23.77
63588;BMP280;49966;46.896;18.004;2023-08-08T09:13:41;100771.31;;;23.98
63588;BMP280;49966;46.896;18.004;2023-08-08T09:16:09;100760.81;;;23.84
63588;BMP280;49966;46.896;18.004;2023-08-08T09:18:39;100781.69;;;23.71
63588;BMP280;49966;46.896;18.004;2023-08-08T09:21:11;100762.66;;;23.58
63588;BMP280;49966;46.896;18.004;2023-08-08T09:23:39;100759.91;;;23.45
63588;BMP280;49966;46.896;18.004;2023-08-08T09:26:13;100757.78;;;23.53
63588;BMP280;49966;46.896;18.004;2023-08-08T09:28:43;100755.47;;;23.51
63588;BMP280;49966;46.896;18.004;2023-08-08T09:31:11;100759.53;;;23.89
63588;BMP280;49966;46.896;18.004;2023-08-08T09:33:40;100759.50;;;24.05
63588;BMP280;49966;46.896;18.004;2023-08-08T09:36:15;100755.19;;;24.20
63588;BMP280;49966;46.896;18.004;2023-08-08T09:38:45;100757.47;;;24.22
63588;BMP280;49966;46.896;18.004;2023-08-08T09:41:21;100766.09;;;24.46
63588;BMP280;49966;46.896;18.004;2023-08-08T09:43:51;100757.09;;;24.07
63588;BMP280;49966;46.896;18.004;2023-08-08T09:46:20;100767.06;;;23.68
63588;BMP280;49966;46.896;18.004;2023-08-08T09:48:50;100763.00;;;23.44
63588;BMP280;49966;46.896;18.004;2023-08-08T09:51:20;100766.06;;;23.62
63588;BMP280;49966;46.896;18.004;2023-08-08T09:53:49;100754.00;;;23.79
63588;BMP280;49966;46.896;18.004;2023-08-08T09:56:19;100760.63;;;23.91
63588;BMP280;49966;46.896;18.004;2023-08-08T09:58:47;100764.47;;;23.65
63588;BMP280;49966;46.896;18.004;2023-08-08T10:01:16;100763.91;;;23.99
63588;BMP280;49966;46.896;18.004;2023-08-08T10:03:45;100759.09;;;23.77
63588;BMP280;49966;46.896;18.004;2023-08-08T10:06:14;100752.59;;;23.75
63588;BMP280;49966;46.896;18.004;2023-08-08T10:08:46;100774.31;;;23.42
63588;BMP280;49966;46.896;18.004;2023-08-08T10:11:15;100744.69;;;23.80
63588;BMP280;49966;46.896;18.004;2023-08-08T10:13:47;100764.47;;;24.06
63588;BMP280;49966;46.896;18.004;2023-08-08T10:16:16;100746.22;;;24.23
63588;BMP280;49966;46.896;18.004;2023-08-08T10:18:46;100745.25;;;24.42
63588;BMP280;49966;46.896;18.004;2023-08-08T10:21:23;100760.56;;;24.49
63588;BMP280;49966;46.896;18.004;2023-08-08T10:24:02;100756.50;;;24.16
63588;BMP280;49966;46.896;18.004;2023-08-08T10:26:31;100756.53;;;24.28
63588;BMP280;49966;46.896;18.004;2023-08-08T10:29:00;100742.34;;;23.66
63588;BMP280;49966;46.896;18.004;2023-08-08T10:31:33;100751.03;;;23.45
63588;BMP280;49966;46.896;18.004;2023-08-08T10:34:04;100747.34;;;23.97
63588;BMP280;49966;46.896;18.004;2023-08-08T10:36:44;100740.38;;;23.83
63588;BMP280;49966;46.896;18.004;2023-08-08T10:39:16;100755.47;;;23.97
63588;BMP280;49966;46.896;18.004;2023-08-08T10:41:46;100739.03;;;24.17
63588;BMP280;49966;46.896;18.004;2023-08-08T10:44:22;100751.53;;;24.27
63588;BMP280;49966;46.896;18.004;2023-08-08T10:46:52;100753.84;;;24.66
63588;BMP280;49966;46.896;18.004;2023-08-08T10:49:24;100748.63;;;24.97
63588;BMP280;49966;46.896;18.004;2023-08-08T10:51:52;100743.94;;;24.85
63588;BMP280;49966;46.896;18.004;2023-08-08T10:54:25;100734.94;;;25.01
63588;BMP280;49966;46.896;18.004;2023-08-08T10:56:57;100736.16;;;24.87
63588;BMP280;49966;46.896;18.004;2023-08-08T10:59:27;100735.06;;;24.47
63588;BMP280;49966;46.896;18.004;2023-08-08T11:02:04;100728.78;;;24.50
63588;BMP280;49966;46.896;18.004;2023-08-08T11:04:33;100735.91;;;24.31
63588;BMP280;49966;46.896;18.004;2023-08-08T11:07:01;100737.97;;;24.27
63588;BMP280;49966;46.896;18.004;2023-08-08T11:09:31;100734.88;;;24.41
63588;BMP280;49966;46.896;18.004;2023-08-08T11:12:00;100744.41;;;24.46
63588;BMP280;49966;46.896;18.004;2023-08-08T11:14:29;100720.84;;;24.68
63588;BMP280;49966;46.896;18.004;2023-08-08T11:16:57;100734.59;;;24.35
63588;BMP280;49966;46.896;18.004;2023-08-08T11:19:25;100733.28;;;24.15
63588;BMP280;49966;46.896;18.004;2023-08-08T11:21:54;100745.31;;;24.01
63588;BMP280;49966;46.896;18.004;2023-08-08T11:24:22;100722.44;;;24.27
63588;BMP280;49966;46.896;18.004;2023-08-08T11:26:58;100719.84;;;24.11
63588;BMP280;49966;46.896;18.004;2023-08-08T11:29:27;100718.25;;;23.84
63588;BMP280;49966;46.896;18.004;2023-08-08T11:32:05;100704.00;;;24.09
63588;BMP280;49966;46.896;18.004;2023-08-08T11:34:46;100721.16;;;24.19
63588;BMP280;49966;46.896;18.004;2023-08-08T11:37:22;100701.31;;;24.22
63588;BMP280;49966;46.896;18.004;2023-08-08T11:39:51;100723.72;;;24.10
63588;BMP280;49966;46.896;18.004;2023-08-08T11:42:35;100710.97;;;23.81
63588;BMP280;49966;46.896;18.004;2023-08-08T11:45:04;100706.63;;;23.71
63588;BMP280;49966;46.896;18.004;2023-08-08T11:47:32;100705.97;;;23.51
63588;BMP280;49966;46.896;18.004;2023-08-08T11:50:04;100697.59;;;23.91
63588;BMP280;49966;46.896;18.004;2023-08-08T11:52:35;100701.16;;;23.88
63588;BMP280;49966;46.896;18.004;2023-08-08T11:55:05;100687.00;;;23.67
63588;BMP280;49966;46.896;18.004;2023-08-08T11:57:35;100689.22;;;23.85
63588;BMP280;49966;46.896;18.004;2023-08-08T12:00:05;100693.00;;;23.46
63588;BMP280;49966;46.896;18.004;2023-08-08T12:02:35;100699.94;;;23.76
63588;BMP280;49966;46.896;18.004;2023-08-08T12:05:07;100696.19;;;23.57
63588;BMP280;49966;46.896;18.004;2023-08-08T12:07:37;100674.78;;;23.75
63588;BMP280;49966;46.896;18.004;2023-08-08T12:10:14;100682.38;;;23.80
63588;BMP280;49966;46.896;18.004;2023-08-08T12:12:45;100676.06;;;23.71
63588;BMP280;49966;46.896;18.004;2023-08-08T12:15:13;100680.22;;;23.88
63588;BMP280;49966;46.896;18.004;2023-08-08T12:17:43;100678.09;;;23.96
63588;BMP280;49966;46.896;18.004;2023-08-08T12:20:11;100675.41;;;24.08
63588;BMP280;49966;46.896;18.004;2023-08-08T12:22:39;100666.59;;;24.04
63588;BMP280;49966;46.896;18.004;2023-08-08T12:25:08;100663.38;;;24.22
63588;BMP280;49966;46.896;18.004;2023-08-08T12:27:36;100678.13;;;24.21
63588;BMP280;49966;46.896;18.004;2023-08-08T12:30:08;100662.41;;;24.29
63588;BMP280;49966;46.896;18.004;2023-08-08T12:32:38;100671.13;;;23.95
63588;BMP280;49966;46.896;18.004;2023-08-08T12:35:07;100663.00;;;23.95
63588;BMP280;49966;46.896;18.004;2023-08-08T12:37:36;100676.25;;;23.93
63588;BMP280;49966;46.896;18.004;2023-08-08T12:40:05;100668.97;;;24.02
63588;BMP280;49966;46.896;18.004;2023-08-08T12:42:34;100662.81;;;24.02
63588;BMP280;49966;46.896;18.004;2023-08-08T12:45:03;100645.28;;;24.19
63588;BMP280;49966;46.896;18.004;2023-08-08T12:47:32;100638.00;;;24.29
63588;BMP280;49966;46.896;18.004;2023-08-08T12:50:03;100644.06;;;24.33
63588;BMP280;49966;46.896;18.004;2023-08-08T12:52:33;100653.53;;;24.28
63588;BMP280;49966;46.896;18.004;2023-08-08T12:55:03;100633.53;;;24.35
63588;BMP280;49966;46.896;18.004;2023-08-08T12:57:31;100630.75;;;24.38
63588;BMP280;49966;46.896;18.004;2023-08-08T13:00:00;100636.25;;;24.48
63588;BMP280;49966;46.896;18.004;2023-08-08T13:02:28;100625.53;;;24.44
63588;BMP280;49966;46.896;18.004;2023-08-08T13:04:57;100637.09;;;24.70
63588;BMP280;49966;46.896;18.004;2023-08-08T13:07:26;100644.56;;;24.79
63588;BMP280;49966;46.896;18.004;2023-08-08T13:09:54;100643.91;;;24.75
63588;BMP280;49966;46.896;18.004;2023-08-08T13:12:23;100632.88;;;24.69
63588;BMP280;49966;46.896;18.004;2023-08-08T13:14:51;100624.84;;;24.53
63588;BMP280;49966;46.896;18.004;2023-08-08T13:17:19;100641.78;;;24.69
63588;BMP280;49966;46.896;18.004;2023-08-08T13:19:47;100624.97;;;24.49
63588;BMP280;49966;46.896;18.004;2023-08-08T13:22:17;100622.56;;;24.64
63588;BMP280;49966;46.896;18.004;2023-08-08T13:24:45;100623.88;;;24.72
63588;BMP280;49966;46.896;18.004;2023-08-08T13:27:14;100638.75;;;24.55
63588;BMP280;49966;46.896;18.004;2023-08-08T13:29:42;100621.09;;;24.37
63588;BMP280;49966;46.896;18.004;2023-08-08T13:32:10;100617.50;;;24.15
63588;BMP280;49966;46.896;18.004;2023-08-08T13:34:38;100613.63;;;24.16
63588;BMP280;49966;46.896;18.004;2023-08-08T13:37:06;100620.88;;;23.94
63588;BMP280;49966;46.896;18.004;2023-08-08T13:39:36;100624.66;;;23.83
63588;BMP280;49966;46.896;18.004;2023-08-08T13:42:05;100613.28;;;23.76
63588;BMP280;49966;46.896;18.004;2023-08-08T13:44:33;100621.03;;;23.74
63588;BMP280;49966;46.896;18.004;2023-08-08T13:47:01;100618.06;;;23.55
63588;BMP280;49966;46.896;18.004;2023-08-08T13:49:29;100613.75;;;23.58
63588;BMP280;49966;46.896;18.004;2023-08-08T13:51:57;100630.66;;;23.62
63588;BMP280;49966;46.896;18.004;2023-08-08T13:54:26;100616.06;;;23.43
63588;BMP280;49966;46.896;18.004;2023-08-08T13:56:56;100617.31;;;23.42
63588;BMP280;49966;46.896;18.004;2023-08-08T13:59:24;100612.97;;;23.45
63588;BMP280;49966;46.896;18.004;2023-08-08T14:01:53;100599.94;;;23.40
63588;BMP280;49966;46.896;18.004;2023-08-08T14:04:21;100600.19;;;23.45